sensor_id;sensor_type;location;lat;lon;timestamp;P1;durP1;ratioP1;P2;durP2;ratioP2
69765;SDS011;57039;48.014;21.384;2023-02-28T01:18:43;13.68;;;7.07;;
69765;SDS011;57039;48.014;21.384;2023-02-28T01:19:47;17.42;;;7.60;;
69765;SDS011;57039;48.014;21.384;2023-02-28T01:20:51;15.43;;;7.43;;
69765;SDS011;57039;48.014;21.384;2023-02-28T01:21:54;13.65;;;7.53;;
69765;SDS011;57039;48.014;21.384;2023-02-28T01:22:57;12.05;;;6.60;;
69765;SDS011;57039;48.014;21.384;2023-02-28T01:24:00;16.17;;;7.27;;
69765;SDS011;57039;48.014;21.384;2023-02-28T01:25:04;12.88;;;7.00;;
69765;SDS011;57039;48.014;21.384;2023-02-28T01:26:11;15.05;;;6.93;;
69765;SDS011;57039;48.014;21.384;2023-02-28T01:27:19;13.10;;;7.03;;
69765;SDS011;57039;48.014;21.384;2023-02-28T01:28:22;13.82;;;7.20;;
69765;SDS011;57039;48.014;21.384;2023-02-28T01:29:25;14.10;;;7.28;;
69765;SDS011;57039;48.014;21.384;2023-02-28T01:30:29;13.60;;;7.20;;
69765;SDS011;57039;48.014;21.384;2023-02-28T01:31:32;20.67;;;8.65;;
69765;SDS011;57039;48.014;21.384;2023-02-28T01:36:23;13.87;;;7.50;;
69765;SDS011;57039;48.014;21.384;2023-02-28T01:37:27;15.90;;;8.23;;
69765;SDS011;57039;48.014;21.384;2023-02-28T01:38:30;14.15;;;7.55;;
69765;SDS011;57039;48.014;21.384;2023-02-28T01:40:50;16.55;;;8.02;;
69765;SDS011;57039;48.014;21.384;2023-02-28T01:41:54;16.67;;;8.93;;
69765;SDS011;57039;48.014;21.384;2023-02-28T01:42:57;15.10;;;7.95;;
69765;SDS011;57039;48.014;21.384;2023-02-28T01:44:01;19.87;;;8.75;;
69765;SDS011;57039;48.014;21.384;2023-02-28T01:46:23;15.40;;;7.35;;
69765;SDS011;57039;48.014;21.384;2023-02-28T01:47:31;14.10;;;7.40;;
69765;SDS011;57039;48.014;21.384;2023-02-28T01:48:42;18.45;;;8.38;;
69765;SDS011;57039;48.014;21.384;2023-02-28T01:50:09;16.75;;;7.62;;
69765;SDS011;57039;48.014;21.384;2023-02-28T01:51:18;14.02;;;7.45;;
69765;SDS011;57039;48.014;21.384;2023-02-28T01:52:25;14.13;;;7.68;;
69765;SDS011;57039;48.014;21.384;2023-02-28T01:53:31;16.87;;;7.72;;
69765;SDS011;57039;48.014;21.384;2023-02-28T01:54:37;15.13;;;7.05;;
69765;SDS011;57039;48.014;21.384;2023-02-28T01:55:40;13.40;;;7.07;;
69765;SDS011;57039;48.014;21.384;2023-02-28T01:56:49;13.23;;;7.47;;
69765;SDS011;57039;48.014;21.384;2023-02-28T01:57:58;14.43;;;6.82;;
69765;SDS011;57039;48.014;21.384;2023-02-28T01:59:05;15.50;;;6.37;;
69765;SDS011;57039;48.014;21.384;2023-02-28T02:00:11;12.70;;;6.57;;
69765;SDS011;57039;48.014;21.384;2023-02-28T02:01:21;12.23;;;6.68;;
69765;SDS011;57039;48.014;21.384;2023-02-28T02:02:27;12.80;;;6.93;;
69765;SDS011;57039;48.014;21.384;2023-02-28T02:03:31;12.63;;;6.87;;
69765;SDS011;57039;48.014;21.384;2023-02-28T02:04:38;10.82;;;5.90;;
69765;SDS011;57039;48.014;21.384;2023-02-28T02:05:48;11.38;;;6.70;;
69765;SDS011;57039;48.014;21.384;2023-02-28T02:06:52;12.50;;;6.57;;
69765;SDS011;57039;48.014;21.384;2023-02-28T02:07:55;14.55;;;7.20;;
69765;SDS011;57039;48.014;21.384;2023-02-28T02:09:00;19.35;;;8.25;;
69765;SDS011;57039;48.014;21.384;2023-02-28T02:10:10;15.13;;;7.63;;
69765;SDS011;57039;48.014;21.384;2023-02-28T02:11:18;14.32;;;8.05;;
69765;SDS011;57039;48.014;21.384;2023-02-28T02:12:37;13.93;;;7.85;;
69765;SDS011;57039;48.014;21.384;2023-02-28T02:18:37;12.18;;;6.93;;
69765;SDS011;57039;48.014;21.384;2023-02-28T02:23:31;13.52;;;7.53;;
69765;SDS011;57039;48.014;21.384;2023-02-28T02:25:11;14.07;;;6.40;;
69765;SDS011;57039;48.014;21.384;2023-02-28T02:27:43;15.07;;;7.12;;
69765;SDS011;57039;48.014;21.384;2023-02-28T02:33:28;15.23;;;7.25;;
69765;SDS011;57039;48.014;21.384;2023-02-28T02:37:40;12.32;;;6.47;;
69765;SDS011;57039;48.014;21.384;2023-02-28T02:39:13;13.87;;;6.13;;
69765;SDS011;57039;48.014;21.384;2023-02-28T02:40:22;13.55;;;6.45;;
69765;SDS011;57039;48.014;21.384;2023-02-28T02:41:39;15.52;;;6.50;;
69765;SDS011;57039;48.014;21.384;2023-02-28T02:43:03;11.40;;;6.22;;
69765;SDS011;57039;48.014;21.384;2023-02-28T02:44:15;12.25;;;5.10;;
69765;SDS011;57039;48.014;21.384;2023-02-28T02:46:34;12.10;;;5.68;;
69765;SDS011;57039;48.014;21.384;2023-02-28T02:47:41;12.68;;;5.82;;
69765;SDS011;57039;48.014;21.384;2023-02-28T02:48:46;11.23;;;5.15;;
69765;SDS011;57039;48.014;21.384;2023-02-28T02:49:52;11.32;;;6.30;;
69765;SDS011;57039;48.014;21.384;2023-02-28T02:50:59;13.70;;;5.30;;
69765;SDS011;57039;48.014;21.384;2023-02-28T02:52:07;10.50;;;4.93;;
69765;SDS011;57039;48.014;21.384;2023-02-28T02:53:14;11.10;;;5.50;;
69765;SDS011;57039;48.014;21.384;2023-02-28T02:54:23;11.70;;;5.43;;
69765;SDS011;57039;48.014;21.384;2023-02-28T02:55:31;11.48;;;5.35;;
69765;SDS011;57039;48.014;21.384;2023-02-28T02:56:39;10.05;;;5.28;;
69765;SDS011;57039;48.014;21.384;2023-02-28T02:57:56;9.70;;;4.55;;
69765;SDS011;57039;48.014;21.384;2023-02-28T02:59:06;10.50;;;4.70;;
69765;SDS011;57039;48.014;21.384;2023-02-28T03:00:12;7.37;;;4.32;;
69765;SDS011;57039;48.014;21.384;2023-02-28T03:03:48;10.10;;;3.97;;
69765;SDS011;57039;48.014;21.384;2023-02-28T03:04:52;10.13;;;5.10;;
69765;SDS011;57039;48.014;21.384;2023-02-28T03:05:59;8.07;;;4.18;;
69765;SDS011;57039;48.014;21.384;2023-02-28T03:07:04;9.98;;;4.97;;
69765;SDS011;57039;48.014;21.384;2023-02-28T03:08:07;9.45;;;4.47;;
69765;SDS011;57039;48.014;21.384;2023-02-28T03:10:32;10.05;;;4.25;;
69765;SDS011;57039;48.014;21.384;2023-02-28T03:11:42;9.45;;;4.90;;
69765;SDS011;57039;48.014;21.384;2023-02-28T03:12:48;9.88;;;4.62;;
69765;SDS011;57039;48.014;21.384;2023-02-28T03:15:24;8.07;;;4.23;;
69765;SDS011;57039;48.014;21.384;2023-02-28T04:12:29;7.30;;;4.32;;
69765;SDS011;57039;48.014;21.384;2023-02-28T04:13:32;7.40;;;4.07;;
69765;SDS011;57039;48.014;21.384;2023-02-28T04:14:35;8.70;;;4.50;;
69765;SDS011;57039;48.014;21.384;2023-02-28T04:15:38;9.63;;;4.32;;
69765;SDS011;57039;48.014;21.384;2023-02-28T04:16:41;9.80;;;4.68;;
69765;SDS011;57039;48.014;21.384;2023-02-28T04:17:45;10.45;;;5.28;;
69765;SDS011;57039;48.014;21.384;2023-02-28T04:18:48;10.90;;;5.70;;
69765;SDS011;57039;48.014;21.384;2023-02-28T04:19:50;9.32;;;4.53;;
69765;SDS011;57039;48.014;21.384;2023-02-28T04:20:53;8.73;;;4.70;;
69765;SDS011;57039;48.014;21.384;2023-02-28T04:21:56;9.13;;;4.62;;
69765;SDS011;57039;48.014;21.384;2023-02-28T04:22:59;10.05;;;4.82;;
69765;SDS011;57039;48.014;21.384;2023-02-28T04:24:02;8.23;;;4.60;;
69765;SDS011;57039;48.014;21.384;2023-02-28T04:25:06;8.75;;;4.62;;
69765;SDS011;57039;48.014;21.384;2023-02-28T04:26:15;8.95;;;4.53;;
69765;SDS011;57039;48.014;21.384;2023-02-28T04:27:17;8.52;;;4.70;;
69765;SDS011;57039;48.014;21.384;2023-02-28T04:28:21;9.02;;;4.68;;
69765;SDS011;57039;48.014;21.384;2023-02-28T04:29:25;7.37;;;4.28;;
69765;SDS011;57039;48.014;21.384;2023-02-28T04:30:31;9.68;;;5.03;;
69765;SDS011;57039;48.014;21.384;2023-02-28T04:31:35;8.95;;;4.60;;
69765;SDS011;57039;48.014;21.384;2023-02-28T04:32:38;8.98;;;4.53;;
69765;SDS011;57039;48.014;21.384;2023-02-28T04:33:41;8.07;;;4.90;;
69765;SDS011;57039;48.014;21.384;2023-02-28T04:34:44;12.00;;;4.67;;
69765;SDS011;57039;48.014;21.384;2023-02-28T04:35:47;8.75;;;4.75;;
69765;SDS011;57039;48.014;21.384;2023-02-28T04:36:50;9.30;;;4.07;;
69765;SDS011;57039;48.014;21.384;2023-02-28T04:38:15;9.65;;;5.05;;
69765;SDS011;57039;48.014;21.384;2023-02-28T04:39:18;9.95;;;5.12;;
69765;SDS011;57039;48.014;21.384;2023-02-28T04:40:22;10.02;;;4.28;;
69765;SDS011;57039;48.014;21.384;2023-02-28T04:41:24;9.13;;;4.50;;
69765;SDS011;57039;48.014;21.384;2023-02-28T04:42:29;9.57;;;4.50;;
69765;SDS011;57039;48.014;21.384;2023-02-28T04:43:38;9.45;;;4.60;;
69765;SDS011;57039;48.014;21.384;2023-02-28T04:44:41;11.00;;;5.28;;
69765;SDS011;57039;48.014;21.384;2023-02-28T04:45:44;8.90;;;4.03;;
69765;SDS011;57039;48.014;21.384;2023-02-28T04:46:47;9.75;;;4.80;;
69765;SDS011;57039;48.014;21.384;2023-02-28T04:47:51;10.02;;;4.97;;
69765;SDS011;57039;48.014;21.384;2023-02-28T04:48:54;8.38;;;4.75;;
69765;SDS011;57039;48.014;21.384;2023-02-28T04:49:57;9.52;;;5.12;;
69765;SDS011;57039;48.014;21.384;2023-02-28T04:51:03;9.60;;;5.28;;
69765;SDS011;57039;48.014;21.384;2023-02-28T04:52:08;10.77;;;5.03;;
69765;SDS011;57039;48.014;21.384;2023-02-28T04:53:12;9.88;;;5.62;;
69765;SDS011;57039;48.014;21.384;2023-02-28T04:54:15;10.05;;;5.53;;
69765;SDS011;57039;48.014;21.384;2023-02-28T04:55:18;9.77;;;5.65;;
69765;SDS011;57039;48.014;21.384;2023-02-28T04:56:21;9.87;;;5.83;;
69765;SDS011;57039;48.014;21.384;2023-02-28T04:57:25;10.80;;;4.97;;
69765;SDS011;57039;48.014;21.384;2023-02-28T04:58:29;11.25;;;5.28;;
69765;SDS011;57039;48.014;21.384;2023-02-28T04:59:32;10.23;;;4.95;;
69765;SDS011;57039;48.014;21.384;2023-02-28T05:00:36;11.02;;;5.20;;
69765;SDS011;57039;48.014;21.384;2023-02-28T05:01:38;11.45;;;6.15;;
69765;SDS011;57039;48.014;21.384;2023-02-28T05:02:41;16.58;;;5.82;;
69765;SDS011;57039;48.014;21.384;2023-02-28T05:03:45;10.77;;;5.57;;
69765;SDS011;57039;48.014;21.384;2023-02-28T05:04:47;11.05;;;5.03;;
69765;SDS011;57039;48.014;21.384;2023-02-28T05:05:51;10.93;;;5.65;;
69765;SDS011;57039;48.014;21.384;2023-02-28T05:06:54;12.13;;;5.60;;
69765;SDS011;57039;48.014;21.384;2023-02-28T05:07:57;17.95;;;5.72;;
69765;SDS011;57039;48.014;21.384;2023-02-28T05:09:00;10.50;;;4.97;;
69765;SDS011;57039;48.014;21.384;2023-02-28T05:10:03;10.73;;;5.43;;
69765;SDS011;57039;48.014;21.384;2023-02-28T05:11:15;11.88;;;5.82;;
69765;SDS011;57039;48.014;21.384;2023-02-28T05:12:20;10.88;;;5.82;;
69765;SDS011;57039;48.014;21.384;2023-02-28T05:13:22;13.27;;;6.07;;
69765;SDS011;57039;48.014;21.384;2023-02-28T05:14:25;13.40;;;6.55;;
69765;SDS011;57039;48.014;21.384;2023-02-28T05:15:29;11.55;;;6.07;;
69765;SDS011;57039;48.014;21.384;2023-02-28T05:16:32;12.15;;;6.78;;
69765;SDS011;57039;48.014;21.384;2023-02-28T05:17:35;13.67;;;6.73;;
69765;SDS011;57039;48.014;21.384;2023-02-28T05:18:38;12.52;;;7.15;;
69765;SDS011;57039;48.014;21.384;2023-02-28T05:22:36;13.95;;;7.05;;
69765;SDS011;57039;48.014;21.384;2023-02-28T05:23:40;13.32;;;7.00;;
69765;SDS011;57039;48.014;21.384;2023-02-28T05:25:58;12.60;;;6.82;;
69765;SDS011;57039;48.014;21.384;2023-02-28T05:27:01;14.35;;;6.90;;
69765;SDS011;57039;48.014;21.384;2023-02-28T05:28:07;12.95;;;7.35;;
69765;SDS011;57039;48.014;21.384;2023-02-28T05:29:11;12.43;;;6.50;;
69765;SDS011;57039;48.014;21.384;2023-02-28T05:30:14;15.00;;;8.10;;
69765;SDS011;57039;48.014;21.384;2023-02-28T05:31:17;14.48;;;7.82;;
69765;SDS011;57039;48.014;21.384;2023-02-28T05:32:20;15.25;;;7.72;;
69765;SDS011;57039;48.014;21.384;2023-02-28T05:33:23;14.05;;;7.55;;
69765;SDS011;57039;48.014;21.384;2023-02-28T05:34:26;14.45;;;8.18;;
69765;SDS011;57039;48.014;21.384;2023-02-28T05:35:30;14.75;;;7.45;;
69765;SDS011;57039;48.014;21.384;2023-02-28T05:36:33;15.82;;;8.43;;
69765;SDS011;57039;48.014;21.384;2023-02-28T05:37:36;14.82;;;7.75;;
69765;SDS011;57039;48.014;21.384;2023-02-28T05:38:40;13.90;;;7.80;;
69765;SDS011;57039;48.014;21.384;2023-02-28T05:39:43;15.90;;;8.00;;
69765;SDS011;57039;48.014;21.384;2023-02-28T05:40:46;15.73;;;8.90;;
69765;SDS011;57039;48.014;21.384;2023-02-28T05:41:50;23.38;;;10.15;;
69765;SDS011;57039;48.014;21.384;2023-02-28T05:42:52;18.52;;;9.85;;
69765;SDS011;57039;48.014;21.384;2023-02-28T05:43:56;20.33;;;10.18;;
69765;SDS011;57039;48.014;21.384;2023-02-28T05:45:00;21.23;;;10.50;;
69765;SDS011;57039;48.014;21.384;2023-02-28T05:46:08;18.65;;;9.10;;
69765;SDS011;57039;48.014;21.384;2023-02-28T05:47:12;18.98;;;9.02;;
69765;SDS011;57039;48.014;21.384;2023-02-28T05:48:18;17.40;;;8.73;;
69765;SDS011;57039;48.014;21.384;2023-02-28T05:49:23;19.27;;;10.65;;
69765;SDS011;57039;48.014;21.384;2023-02-28T05:50:26;22.10;;;12.77;;
69765;SDS011;57039;48.014;21.384;2023-02-28T05:51:29;26.77;;;17.02;;
69765;SDS011;57039;48.014;21.384;2023-02-28T05:52:32;22.45;;;13.23;;
69765;SDS011;57039;48.014;21.384;2023-02-28T05:53:36;16.85;;;9.82;;
69765;SDS011;57039;48.014;21.384;2023-02-28T05:54:39;25.08;;;14.18;;
69765;SDS011;57039;48.014;21.384;2023-02-28T05:55:42;24.20;;;15.73;;
69765;SDS011;57039;48.014;21.384;2023-02-28T05:56:50;24.98;;;13.20;;
69765;SDS011;57039;48.014;21.384;2023-02-28T05:57:53;27.75;;;14.52;;
69765;SDS011;57039;48.014;21.384;2023-02-28T05:58:56;39.38;;;18.73;;
69765;SDS011;57039;48.014;21.384;2023-02-28T05:59:59;69.60;;;32.63;;
69765;SDS011;57039;48.014;21.384;2023-02-28T06:01:18;87.23;;;40.00;;
69765;SDS011;57039;48.014;21.384;2023-02-28T06:02:27;46.95;;;20.95;;
69765;SDS011;57039;48.014;21.384;2023-02-28T06:03:30;46.33;;;22.92;;
69765;SDS011;57039;48.014;21.384;2023-02-28T06:04:33;40.05;;;18.75;;
69765;SDS011;57039;48.014;21.384;2023-02-28T06:05:36;33.90;;;16.90;;
69765;SDS011;57039;48.014;21.384;2023-02-28T06:06:41;31.58;;;15.80;;
69765;SDS011;57039;48.014;21.384;2023-02-28T06:07:44;30.80;;;16.55;;
69765;SDS011;57039;48.014;21.384;2023-02-28T06:08:47;39.38;;;19.15;;
69765;SDS011;57039;48.014;21.384;2023-02-28T06:09:50;31.75;;;14.68;;
69765;SDS011;57039;48.014;21.384;2023-02-28T06:10:53;44.30;;;19.73;;
69765;SDS011;57039;48.014;21.384;2023-02-28T06:11:59;33.13;;;15.47;;
69765;SDS011;57039;48.014;21.384;2023-02-28T06:13:05;27.15;;;11.95;;
69765;SDS011;57039;48.014;21.384;2023-02-28T06:14:15;22.33;;;10.80;;
69765;SDS011;57039;48.014;21.384;2023-02-28T06:15:20;64.25;;;26.83;;
69765;SDS011;57039;48.014;21.384;2023-02-28T06:16:23;29.65;;;13.85;;
69765;SDS011;57039;48.014;21.384;2023-02-28T06:17:27;53.87;;;22.95;;
69765;SDS011;57039;48.014;21.384;2023-02-28T06:18:30;78.78;;;31.02;;
69765;SDS011;57039;48.014;21.384;2023-02-28T06:19:36;33.05;;;15.32;;
69765;SDS011;57039;48.014;21.384;2023-02-28T06:20:41;34.80;;;15.23;;
69765;SDS011;57039;48.014;21.384;2023-02-28T06:21:45;23.20;;;10.63;;
69765;SDS011;57039;48.014;21.384;2023-02-28T06:22:52;15.47;;;8.17;;
69765;SDS011;57039;48.014;21.384;2023-02-28T06:23:57;22.62;;;10.13;;
69765;SDS011;57039;48.014;21.384;2023-02-28T06:25:00;30.92;;;12.10;;
69765;SDS011;57039;48.014;21.384;2023-02-28T06:26:03;24.27;;;11.18;;
69765;SDS011;57039;48.014;21.384;2023-02-28T06:27:07;23.45;;;11.00;;
69765;SDS011;57039;48.014;21.384;2023-02-28T06:28:10;22.60;;;11.10;;
69765;SDS011;57039;48.014;21.384;2023-02-28T06:29:13;20.33;;;9.52;;
69765;SDS011;57039;48.014;21.384;2023-02-28T06:30:21;13.52;;;7.37;;
69765;SDS011;57039;48.014;21.384;2023-02-28T06:31:27;13.77;;;7.05;;
69765;SDS011;57039;48.014;21.384;2023-02-28T06:32:31;16.48;;;8.00;;
69765;SDS011;57039;48.014;21.384;2023-02-28T06:33:36;15.90;;;7.80;;
69765;SDS011;57039;48.014;21.384;2023-02-28T06:34:41;14.70;;;7.75;;
69765;SDS011;57039;48.014;21.384;2023-02-28T06:35:44;12.45;;;6.68;;
69765;SDS011;57039;48.014;21.384;2023-02-28T06:36:50;12.07;;;6.75;;
69765;SDS011;57039;48.014;21.384;2023-02-28T06:37:54;14.73;;;6.97;;
69765;SDS011;57039;48.014;21.384;2023-02-28T06:38:58;13.38;;;7.15;;
69765;SDS011;57039;48.014;21.384;2023-02-28T06:40:01;11.27;;;6.47;;
69765;SDS011;57039;48.014;21.384;2023-02-28T06:41:06;15.82;;;6.87;;
69765;SDS011;57039;48.014;21.384;2023-02-28T06:42:10;11.10;;;6.65;;
69765;SDS011;57039;48.014;21.384;2023-02-28T06:43:13;13.82;;;6.70;;
69765;SDS011;57039;48.014;21.384;2023-02-28T06:44:17;17.67;;;7.33;;
69765;SDS011;57039;48.014;21.384;2023-02-28T06:45:20;12.70;;;6.25;;
69765;SDS011;57039;48.014;21.384;2023-02-28T06:46:23;33.10;;;15.10;;
69765;SDS011;57039;48.014;21.384;2023-02-28T06:47:30;21.95;;;9.73;;
69765;SDS011;57039;48.014;21.384;2023-02-28T06:48:34;24.70;;;12.15;;
69765;SDS011;57039;48.014;21.384;2023-02-28T06:49:40;40.50;;;18.62;;
69765;SDS011;57039;48.014;21.384;2023-02-28T06:50:44;22.23;;;10.77;;
69765;SDS011;57039;48.014;21.384;2023-02-28T06:51:53;21.30;;;11.90;;
69765;SDS011;57039;48.014;21.384;2023-02-28T06:52:56;22.75;;;11.40;;
69765;SDS011;57039;48.014;21.384;2023-02-28T06:54:05;17.23;;;8.73;;
69765;SDS011;57039;48.014;21.384;2023-02-28T06:55:11;11.07;;;6.40;;
69765;SDS011;57039;48.014;21.384;2023-02-28T06:56:15;8.98;;;5.50;;
69765;SDS011;57039;48.014;21.384;2023-02-28T06:57:19;10.45;;;5.68;;
69765;SDS011;57039;48.014;21.384;2023-02-28T06:58:22;10.30;;;5.82;;
69765;SDS011;57039;48.014;21.384;2023-02-28T06:59:25;10.70;;;6.12;;
69765;SDS011;57039;48.014;21.384;2023-02-28T07:00:28;11.20;;;5.55;;
69765;SDS011;57039;48.014;21.384;2023-02-28T07:01:32;12.75;;;5.65;;
69765;SDS011;57039;48.014;21.384;2023-02-28T07:02:36;11.60;;;6.40;;
69765;SDS011;57039;48.014;21.384;2023-02-28T07:03:40;10.93;;;5.80;;
69765;SDS011;57039;48.014;21.384;2023-02-28T07:04:43;17.52;;;8.73;;
69765;SDS011;57039;48.014;21.384;2023-02-28T07:05:47;48.87;;;21.83;;
69765;SDS011;57039;48.014;21.384;2023-02-28T07:06:51;46.35;;;20.85;;
69765;SDS011;57039;48.014;21.384;2023-02-28T07:07:54;30.40;;;14.63;;
69765;SDS011;57039;48.014;21.384;2023-02-28T07:08:57;19.35;;;9.77;;
69765;SDS011;57039;48.014;21.384;2023-02-28T07:10:01;46.40;;;20.50;;
69765;SDS011;57039;48.014;21.384;2023-02-28T07:11:06;56.70;;;25.52;;
69765;SDS011;57039;48.014;21.384;2023-02-28T07:12:09;37.05;;;16.42;;
69765;SDS011;57039;48.014;21.384;2023-02-28T07:13:15;39.45;;;18.42;;
69765;SDS011;57039;48.014;21.384;2023-02-28T07:14:19;19.55;;;12.13;;
69765;SDS011;57039;48.014;21.384;2023-02-28T07:15:22;15.57;;;9.77;;
69765;SDS011;57039;48.014;21.384;2023-02-28T07:16:25;19.13;;;11.67;;
69765;SDS011;57039;48.014;21.384;2023-02-28T07:17:29;15.32;;;8.13;;
69765;SDS011;57039;48.014;21.384;2023-02-28T07:18:32;15.93;;;8.38;;
69765;SDS011;57039;48.014;21.384;2023-02-28T07:19:36;12.80;;;7.15;;
69765;SDS011;57039;48.014;21.384;2023-02-28T07:20:39;12.27;;;6.68;;
69765;SDS011;57039;48.014;21.384;2023-02-28T07:21:45;10.23;;;5.72;;
69765;SDS011;57039;48.014;21.384;2023-02-28T07:22:48;11.80;;;5.47;;
69765;SDS011;57039;48.014;21.384;2023-02-28T07:23:58;10.90;;;6.25;;
69765;SDS011;57039;48.014;21.384;2023-02-28T07:25:01;12.40;;;6.18;;
69765;SDS011;57039;48.014;21.384;2023-02-28T07:26:07;10.23;;;5.60;;
69765;SDS011;57039;48.014;21.384;2023-02-28T07:27:15;11.50;;;5.73;;
69765;SDS011;57039;48.014;21.384;2023-02-28T07:28:26;14.00;;;6.85;;
69765;SDS011;57039;48.014;21.384;2023-02-28T07:29:29;10.57;;;5.65;;
69765;SDS011;57039;48.014;21.384;2023-02-28T07:30:32;11.63;;;6.15;;
69765;SDS011;57039;48.014;21.384;2023-02-28T07:31:36;12.27;;;6.85;;
69765;SDS011;57039;48.014;21.384;2023-02-28T07:32:38;13.00;;;6.85;;
69765;SDS011;57039;48.014;21.384;2023-02-28T07:33:42;13.55;;;6.75;;
69765;SDS011;57039;48.014;21.384;2023-02-28T07:34:45;10.38;;;6.10;;
69765;SDS011;57039;48.014;21.384;2023-02-28T07:35:48;13.27;;;7.75;;
69765;SDS011;57039;48.014;21.384;2023-02-28T07:36:55;11.50;;;5.85;;
69765;SDS011;57039;48.014;21.384;2023-02-28T07:37:58;12.60;;;6.60;;
69765;SDS011;57039;48.014;21.384;2023-02-28T07:39:01;23.80;;;10.97;;
69765;SDS011;57039;48.014;21.384;2023-02-28T07:40:07;40.25;;;17.12;;
69765;SDS011;57039;48.014;21.384;2023-02-28T07:41:17;15.73;;;8.25;;
69765;SDS011;57039;48.014;21.384;2023-02-28T07:42:22;18.35;;;8.13;;
69765;SDS011;57039;48.014;21.384;2023-02-28T07:43:25;26.67;;;12.93;;
69765;SDS011;57039;48.014;21.384;2023-02-28T07:44:29;14.57;;;8.30;;
69765;SDS011;57039;48.014;21.384;2023-02-28T07:45:32;16.48;;;8.73;;
69765;SDS011;57039;48.014;21.384;2023-02-28T07:46:37;32.10;;;15.00;;
69765;SDS011;57039;48.014;21.384;2023-02-28T07:47:41;11.15;;;6.00;;
69765;SDS011;57039;48.014;21.384;2023-02-28T07:48:44;8.93;;;5.13;;
69765;SDS011;57039;48.014;21.384;2023-02-28T07:54:38;9.70;;;4.82;;
69765;SDS011;57039;48.014;21.384;2023-02-28T07:55:41;11.10;;;6.18;;
69765;SDS011;57039;48.014;21.384;2023-02-28T07:56:47;10.25;;;5.60;;
69765;SDS011;57039;48.014;21.384;2023-02-28T07:57:50;11.35;;;5.85;;
69765;SDS011;57039;48.014;21.384;2023-02-28T08:00:11;11.48;;;5.75;;
69765;SDS011;57039;48.014;21.384;2023-02-28T08:01:16;12.00;;;5.95;;
69765;SDS011;57039;48.014;21.384;2023-02-28T08:02:19;11.10;;;5.90;;
69765;SDS011;57039;48.014;21.384;2023-02-28T08:03:23;11.35;;;5.18;;
69765;SDS011;57039;48.014;21.384;2023-02-28T08:04:27;9.20;;;5.10;;
69765;SDS011;57039;48.014;21.384;2023-02-28T08:05:31;10.25;;;5.15;;
69765;SDS011;57039;48.014;21.384;2023-02-28T08:06:34;12.90;;;6.18;;
69765;SDS011;57039;48.014;21.384;2023-02-28T08:07:37;11.88;;;5.70;;
69765;SDS011;57039;48.014;21.384;2023-02-28T08:08:40;16.23;;;7.75;;
69765;SDS011;57039;48.014;21.384;2023-02-28T08:09:43;24.23;;;11.85;;
69765;SDS011;57039;48.014;21.384;2023-02-28T08:10:46;21.02;;;10.52;;
69765;SDS011;57039;48.014;21.384;2023-02-28T08:11:50;18.83;;;9.73;;
69765;SDS011;57039;48.014;21.384;2023-02-28T08:12:53;21.63;;;12.00;;
69765;SDS011;57039;48.014;21.384;2023-02-28T08:13:56;16.87;;;8.40;;
69765;SDS011;57039;48.014;21.384;2023-02-28T08:15:01;20.25;;;9.90;;
69765;SDS011;57039;48.014;21.384;2023-02-28T08:16:04;10.60;;;6.32;;
69765;SDS011;57039;48.014;21.384;2023-02-28T08:17:08;12.80;;;6.80;;
69765;SDS011;57039;48.014;21.384;2023-02-28T08:18:12;14.05;;;6.75;;
69765;SDS011;57039;48.014;21.384;2023-02-28T08:19:15;10.30;;;5.50;;
69765;SDS011;57039;48.014;21.384;2023-02-28T08:20:18;12.07;;;5.93;;
69765;SDS011;57039;48.014;21.384;2023-02-28T08:21:21;10.30;;;5.40;;
69765;SDS011;57039;48.014;21.384;2023-02-28T08:22:25;12.15;;;5.65;;
69765;SDS011;57039;48.014;21.384;2023-02-28T08:23:27;11.57;;;5.23;;
69765;SDS011;57039;48.014;21.384;2023-02-28T08:24:30;10.93;;;5.50;;
69765;SDS011;57039;48.014;21.384;2023-02-28T08:25:33;10.82;;;5.57;;
69765;SDS011;57039;48.014;21.384;2023-02-28T08:26:36;10.20;;;5.25;;
69765;SDS011;57039;48.014;21.384;2023-02-28T08:27:39;12.68;;;6.37;;
69765;SDS011;57039;48.014;21.384;2023-02-28T08:28:42;23.80;;;11.88;;
69765;SDS011;57039;48.014;21.384;2023-02-28T08:29:46;20.17;;;9.50;;
69765;SDS011;57039;48.014;21.384;2023-02-28T08:30:49;34.10;;;17.40;;
69765;SDS011;57039;48.014;21.384;2023-02-28T08:31:52;16.87;;;8.98;;
69765;SDS011;57039;48.014;21.384;2023-02-28T08:32:56;16.30;;;8.43;;
69765;SDS011;57039;48.014;21.384;2023-02-28T08:34:00;10.83;;;5.73;;
69765;SDS011;57039;48.014;21.384;2023-02-28T08:35:04;10.40;;;5.77;;
69765;SDS011;57039;48.014;21.384;2023-02-28T08:36:08;9.50;;;5.28;;
69765;SDS011;57039;48.014;21.384;2023-02-28T08:37:12;10.02;;;5.50;;
69765;SDS011;57039;48.014;21.384;2023-02-28T08:38:16;11.82;;;6.55;;
69765;SDS011;57039;48.014;21.384;2023-02-28T08:39:19;13.43;;;6.62;;
69765;SDS011;57039;48.014;21.384;2023-02-28T08:40:22;12.90;;;6.57;;
69765;SDS011;57039;48.014;21.384;2023-02-28T08:41:25;10.90;;;6.43;;
69765;SDS011;57039;48.014;21.384;2023-02-28T08:42:29;10.40;;;5.72;;
69765;SDS011;57039;48.014;21.384;2023-02-28T08:43:33;12.27;;;6.35;;
69765;SDS011;57039;48.014;21.384;2023-02-28T08:44:36;11.40;;;5.63;;
69765;SDS011;57039;48.014;21.384;2023-02-28T08:45:39;11.10;;;6.10;;
69765;SDS011;57039;48.014;21.384;2023-02-28T08:46:43;10.15;;;5.72;;
69765;SDS011;57039;48.014;21.384;2023-02-28T08:47:46;9.80;;;5.80;;
69765;SDS011;57039;48.014;21.384;2023-02-28T08:48:53;15.00;;;6.82;;
69765;SDS011;57039;48.014;21.384;2023-02-28T08:49:57;13.32;;;6.45;;
69765;SDS011;57039;48.014;21.384;2023-02-28T08:52:09;14.27;;;6.97;;
69765;SDS011;57039;48.014;21.384;2023-02-28T08:53:11;10.75;;;6.55;;
69765;SDS011;57039;48.014;21.384;2023-02-28T08:54:15;14.68;;;6.80;;
69765;SDS011;57039;48.014;21.384;2023-02-28T08:55:21;23.93;;;10.17;;
69765;SDS011;57039;48.014;21.384;2023-02-28T08:56:24;16.70;;;8.83;;
69765;SDS011;57039;48.014;21.384;2023-02-28T08:57:28;16.87;;;7.85;;
69765;SDS011;57039;48.014;21.384;2023-02-28T08:58:31;11.43;;;6.70;;
69765;SDS011;57039;48.014;21.384;2023-02-28T08:59:35;16.90;;;8.77;;
69765;SDS011;57039;48.014;21.384;2023-02-28T09:00:38;16.60;;;7.62;;
69765;SDS011;57039;48.014;21.384;2023-02-28T09:01:42;13.75;;;7.40;;
69765;SDS011;57039;48.014;21.384;2023-02-28T09:02:46;12.63;;;7.18;;
69765;SDS011;57039;48.014;21.384;2023-02-28T09:03:50;13.55;;;7.30;;
69765;SDS011;57039;48.014;21.384;2023-02-28T09:04:54;13.88;;;7.95;;
69765;SDS011;57039;48.014;21.384;2023-02-28T09:05:58;14.90;;;7.90;;
69765;SDS011;57039;48.014;21.384;2023-02-28T09:07:03;15.37;;;8.97;;
69765;SDS011;57039;48.014;21.384;2023-02-28T09:08:06;11.65;;;6.62;;
69765;SDS011;57039;48.014;21.384;2023-02-28T09:09:09;10.73;;;5.95;;
69765;SDS011;57039;48.014;21.384;2023-02-28T09:10:13;11.07;;;6.12;;
69765;SDS011;57039;48.014;21.384;2023-02-28T09:11:22;12.90;;;6.10;;
69765;SDS011;57039;48.014;21.384;2023-02-28T09:12:26;11.82;;;7.32;;
69765;SDS011;57039;48.014;21.384;2023-02-28T09:13:29;12.35;;;6.28;;
69765;SDS011;57039;48.014;21.384;2023-02-28T09:14:32;12.40;;;7.10;;
69765;SDS011;57039;48.014;21.384;2023-02-28T09:15:37;17.90;;;10.10;;